Nikolaevskoe, Russia
Current Conditions -  °F | °C
As of 6:00 PM on Friday 24 Oct 2014 (Local Time) from ULOO Reporting Station
Clear Clear  
Wind Chill: 25°   Ceiling: Unl
Heat Index: 30°   Visibility: 4mi
Dew Point: 19°   Wind: 4mph
Humidity: 64%   Direction: 140°SE
Pressure: 30.59"   Gusts: NA
Location:  58.57°N, 29.8°E
Report Text: ULOO 241500Z 14002MPS P6000 NSC M01/M07 Q1036 19090070 NOSIGRMK QFE773
Loading
Personal Weather Stations






























Interactive Weather Map
Tropical Storm Tracking
New forecast layout! Learn more

10-Day Weather Forecast

Advertisements
Track Severe Weather on mobile